Sea-land Lightning — WDB9986 — position and weather

sailwx.info

Track history (hours):
 
Tides and Currents Weather Stations Pressure Air Temp Water Temp Dewpoint Dewpoint Depression Visibility Wind Speed Wind Dir Waves Ship Positions

Sea-land Lightning

Owner: MAERSK LINE, LIMITED, NORFOLK, VA. More information available from US FCC via Universal Licensing System.

Last reported at 2015-Jan-30 09:33 UTC. Time now 2015-Jan-31 04:00 UTC.
Position N 34°05' E 134°56'.

Type: Ship (hazmat cat A). MMSI: 303316000.

Date/timePositionNaut miles runAvg speedWind from/ knotsBaromVisibWave heightAir tempDewpointWater temp
2015-Jan-30 09:33N 34°05' E 134°56'1413.8
2015-Jan-30 08:33N 34°19' E 134°59'1918.7
2015-Jan-30 07:33N 34°33' E 135°14'8 7.7
2015-Jan-30 06:29N 34°41' E 135°16'0 0.0
2015-Jan-30 05:29N 34°41' E 135°16'0 0.0
2015-Jan-30 04:29N 34°41' E 135°16'0 0.0
2015-Jan-30 03:23N 34°41' E 135°16'3 3.7
2015-Jan-30 02:33N 34°38' E 135°17'1514.6
2015-Jan-30 01:33N 34°25' E 135°07'1616.0
2015-Jan-30 00:33N 34°11' E 134°59'1312.8
2015-Jan-29 23:33N 33°58' E 134°59'22713.4
2015-Jan-29 06:33N 34°40' E 139°30'1918.6
2015-Jan-29 05:33N 34°57' E 139°39'1716.9
2015-Jan-29 04:33N 35°13' E 139°46'1211.5
2015-Jan-29 03:33N 35°23' E 139°41'1 0.6
2015-Jan-29 02:33N 35°24' E 139°41'0 0.0
2015-Jan-29 01:33N 35°24' E 139°41'0 0.0
2015-Jan-29 00:32N 35°24' E 139°41'0 0.0
2015-Jan-28 23:32N 35°24' E 139°41'1 0.9
2015-Jan-28 22:33N 35°23' E 139°41'1010.0
2015-Jan-28 21:33N 35°15' E 139°47'10 9.7
2015-Jan-28 20:34N 35°05' E 139°45'9 9.0
2015-Jan-28 19:33N 34°56' E 139°42'8 8.5
2015-Jan-28 18:33N 34°49' E 139°48'10 9.8
2015-Jan-28 17:32N 34°42' E 139°56'6 3.1
2015-Jan-28 15:28N 34°47' E 140°02'378 9.6
2015-Jan-27 00:00N 40°06' E 144°18'404 8.4 180 / 211010.0 5.4 1.0 8.0 3.8 8.0
2015-Jan-25 00:00N 45°30' E 149°48'33814.1 340 / 221019.510.8 4.5 1.0 1.0
2015-Jan-24 00:00N 48°30' E 156°48'   070 / 48991.0 0.5 6.0-2.0 1.0
Track history (hours):
 
Tides and Currents Weather Stations Pressure Air Temp Water Temp Dewpoint Dewpoint Depression Visibility Wind Speed Wind Dir Waves Ship Positions

Sea-land Lightning

Owner: MAERSK LINE, LIMITED, NORFOLK, VA. More information available from US FCC via Universal Licensing System.

Last reported at 2015-Jan-30 09:33 UTC. Time now 2015-Jan-31 04:00 UTC.
Position N 34°05' E 134°56'.

Type: Ship (hazmat cat A). MMSI: 303316000.

Date/timePositionNaut miles runAvg speedWind from/ knotsBaromVisibWave heightAir tempDewpointWater temp
2015-Jan-30 09:33N 34°05' E 134°56'1413.8
2015-Jan-30 08:33N 34°19' E 134°59'1918.7
2015-Jan-30 07:33N 34°33' E 135°14'8 7.7
2015-Jan-30 06:29N 34°41' E 135°16'0 0.0
2015-Jan-30 05:29N 34°41' E 135°16'0 0.0
2015-Jan-30 04:29N 34°41' E 135°16'0 0.0
2015-Jan-30 03:23N 34°41' E 135°16'3 3.7
2015-Jan-30 02:33N 34°38' E 135°17'1514.6
2015-Jan-30 01:33N 34°25' E 135°07'1616.0
2015-Jan-30 00:33N 34°11' E 134°59'1312.8
2015-Jan-29 23:33N 33°58' E 134°59'22713.4
2015-Jan-29 06:33N 34°40' E 139°30'1918.6
2015-Jan-29 05:33N 34°57' E 139°39'1716.9
2015-Jan-29 04:33N 35°13' E 139°46'1211.5
2015-Jan-29 03:33N 35°23' E 139°41'1 0.6
2015-Jan-29 02:33N 35°24' E 139°41'0 0.0
2015-Jan-29 01:33N 35°24' E 139°41'0 0.0
2015-Jan-29 00:32N 35°24' E 139°41'0 0.0
2015-Jan-28 23:32N 35°24' E 139°41'1 0.9
2015-Jan-28 22:33N 35°23' E 139°41'1010.0
2015-Jan-28 21:33N 35°15' E 139°47'10 9.7
2015-Jan-28 20:34N 35°05' E 139°45'9 9.0
2015-Jan-28 19:33N 34°56' E 139°42'8 8.5
2015-Jan-28 18:33N 34°49' E 139°48'10 9.8
2015-Jan-28 17:32N 34°42' E 139°56'6 3.1
2015-Jan-28 15:28N 34°47' E 140°02'378 9.6
2015-Jan-27 00:00N 40°06' E 144°18'404 8.4 180 / 211010.0 5.4 1.0 8.0 3.8 8.0
2015-Jan-25 00:00N 45°30' E 149°48'33814.1 340 / 221019.510.8 4.5 1.0 1.0
2015-Jan-24 00:00N 48°30' E 156°48'   070 / 48991.0 0.5 6.0-2.0 1.0

Dump ship's entire track history